ULKNZC weather

Letiště Kněžice u Jičína
Kněžice u Jičína, Central Bohemian Region, Czechia

Public forecast

Using degrees Celsius for public forecast. Weather courtesy of forecast.io.

Closest aviation weather report (METAR) to Letiště Kněžice u Jičína

Closest report is Čáslav Air Base, 19.7 nm (36.4 km) S. Retrieved 2019/10/20 23:00 UTC (24 minutes ago):

LKCV 202300Z 00000KT CAVOK 09/09 Q1014 NOSIG RMK BLU BLU

Closest aviation forecast (TAF) to Letiště Kněžice u Jičína

Closest forecast is Čáslav Air Base, 19.7 nm (36.4 km) S. Retrieved 2019/10/20 18:04 UTC (5 hours ago):

TAF LKCV 201700Z 2018/2118 VRB02KT CAVOK BECMG 2021/2023 4000 BR BKN012 TEMPO 2023/2108 2000 MIFG BR OVC005 PROB40 2100/2108 0500 FG VV002 BECMG 2109/2112 35006KT CAVOK